Time;durP1;ratioP1;P1;durP2;ratioP2;P2;SDS_P1;SDS_P2;PMS_P1;PMS_P2;Temp;Humidity;BMP_temperature;BMP_pressure;BME280_temperature;BME280_humidity;BME280_pressure;Samples;Min_cycle;Max_cycle;Signal;HPM_P1;HPM_P2
2022/04/25 00:00:56;;;;;;;;;21.75;20.75;;;;;15.89;50.28;100210.19;5022033;28;45414;-94
2022/04/25 00:03:21;;;;;;;;;21.75;20.00;;;;;15.85;50.43;100219.47;5027901;28;45545;-95
2022/04/25 00:05:46;;;;;;;;;20.25;19.50;;;;;15.76;50.26;100203.22;5024238;28;45433;-95
2022/04/25 00:08:12;;;;;;;;;23.50;22.00;;;;;15.81;50.65;100212.69;5022224;28;45700;-95
2022/04/25 00:10:37;;;;;;;;;20.25;19.00;;;;;15.81;50.26;100204.66;5011321;28;45471;-95
2022/04/25 00:13:03;;;;;;;;;21.75;19.00;;;;;15.75;50.16;100214.94;5024073;28;44909;-95
2022/04/25 00:15:28;;;;;;;;;21.00;18.50;;;;;15.71;50.23;100210.81;5027711;28;46310;-96
2022/04/25 00:17:54;;;;;;;;;18.75;18.75;;;;;15.67;50.73;100213.84;5024364;28;45318;-96
2022/04/25 00:20:19;;;;;;;;;23.50;21.75;;;;;15.65;50.64;100210.44;5039181;28;45218;-96
2022/04/25 00:22:46;;;;;;;;;20.25;18.25;;;;;15.53;50.25;100205.13;5037960;28;45000;-96
2022/04/25 00:25:12;;;;;;;;;21.75;21.75;;;;;15.61;50.64;100212.56;5030619;28;48424;-96
2022/04/25 00:27:37;;;;;;;;;18.75;18.75;;;;;15.55;50.75;100208.53;5025153;28;44855;-96
2022/04/25 00:30:04;;;;;;;;;22.50;20.75;;;;;15.53;50.41;100215.88;5039688;28;48891;-96
2022/04/25 00:32:29;;;;;;;;;22.00;22.00;;;;;15.45;50.61;100209.47;5044746;28;45379;-96
2022/04/25 00:34:54;;;;;;;;;23.75;21.25;;;;;15.56;50.33;100220.13;5020664;28;44913;-93
2022/04/25 00:37:20;;;;;;;;;28.75;26.50;;;;;15.55;50.33;100221.13;5028186;28;45316;-96
2022/04/25 00:39:45;;;;;;;;;32.25;27.00;;;;;15.50;50.84;100213.47;5020946;28;45454;-96
2022/04/25 00:42:10;;;;;;;;;29.50;28.25;;;;;15.48;50.82;100214.56;5016787;28;45540;-95
2022/04/25 00:44:36;;;;;;;;;29.50;27.50;;;;;15.46;51.17;100217.38;5011070;28;45949;-96
2022/04/25 00:47:03;;;;;;;;;27.00;26.50;;;;;15.41;51.14;100213.41;5018786;28;45525;-96
2022/04/25 00:49:28;;;;;;;;;25.75;25.25;;;;;15.40;50.34;100220.59;5019000;28;45354;-96
2022/04/25 00:51:54;;;;;;;;;25.25;22.25;;;;;15.43;50.56;100220.31;5025977;28;45543;-96
2022/04/25 00:54:21;;;;;;;;;21.00;19.00;;;;;15.38;50.44;100219.03;5020100;28;45332;-95
2022/04/25 00:56:48;;;;;;;;;19.25;19.25;;;;;15.25;50.61;100189.69;5020135;28;45444;-95
2022/04/25 00:59:21;;;;;;;;;16.25;16.25;;;;;15.27;50.69;100203.81;5021832;28;45453;-96
2022/04/25 01:01:47;;;;;;;;;17.75;16.75;;;;;15.27;51.06;100220.78;5025490;28;45274;-96
2022/04/25 01:04:12;;;;;;;;;18.25;16.25;;;;;15.26;51.08;100220.91;5021496;28;45391;-96
2022/04/25 01:06:38;;;;;;;;;19.50;16.50;;;;;15.25;51.17;100222.75;5021772;28;45284;-95
2022/04/25 01:09:04;;;;;;;;;21.00;17.25;;;;;15.24;50.79;100221.03;5019071;28;45353;-95
2022/04/25 01:11:30;;;;;;;;;15.00;15.00;;;;;15.22;51.06;100216.78;5024048;28;45372;-96
2022/04/25 01:13:55;;;;;;;;;15.25;14.00;;;;;15.20;50.85;100222.28;5029085;28;45283;-96
2022/04/25 01:16:21;;;;;;;;;17.75;13.50;;;;;15.16;51.02;100223.50;5025186;28;45432;-96
2022/04/25 01:18:47;;;;;;;;;18.50;16.75;;;;;15.10;51.41;100224.00;5019392;28;45361;-96
2022/04/25 01:21:17;;;;;;;;;19.75;18.00;;;;;15.03;51.19;100225.50;5018524;28;45480;-96
2022/04/25 01:29:13;;;;;;;;;17.00;16.50;;;;;14.96;51.92;100227.00;5013309;28;45328;-93
2022/04/25 01:31:38;;;;;;;;;14.50;14.25;;;;;14.93;51.63;100222.72;5014825;28;45412;-94
2022/04/25 01:34:04;;;;;;;;;16.75;14.00;;;;;14.93;51.73;100216.53;5016518;28;45942;-94
2022/04/25 01:36:30;;;;;;;;;20.25;17.00;;;;;14.96;52.01;100221.63;5016863;28;45500;-95
2022/04/25 01:38:56;;;;;;;;;14.75;14.75;;;;;14.96;51.99;100221.63;5016191;28;45559;-94
2022/04/25 01:41:21;;;;;;;;;17.00;16.00;;;;;14.94;52.08;100215.56;5029281;28;45490;-94
2022/04/25 01:43:47;;;;;;;;;16.00;15.25;;;;;14.92;51.99;100218.38;5014302;28;45936;-94
2022/04/25 01:46:12;;;;;;;;;15.50;15.00;;;;;14.92;52.16;100215.69;5014013;28;45557;-94
2022/04/25 01:48:38;;;;;;;;;21.00;18.25;;;;;14.85;52.19;100223.38;5014186;28;45555;-93
2022/04/25 01:51:03;;;;;;;;;19.75;17.75;;;;;14.87;52.14;100216.06;5014110;28;45454;-92
2022/04/25 01:53:29;;;;;;;;;17.50;17.50;;;;;14.90;52.26;100234.56;5012633;28;47319;-93
2022/04/25 01:55:55;;;;;;;;;15.75;15.75;;;;;14.80;52.30;100222.06;5012743;28;45430;-94
2022/04/25 01:58:20;;;;;;;;;17.75;15.75;;;;;14.80;52.20;100228.25;5014216;28;45550;-93
2022/04/25 02:00:46;;;;;;;;;18.00;16.75;;;;;14.77;52.49;100225.84;5013520;28;48824;-93
2022/04/25 02:03:12;;;;;;;;;19.50;18.00;;;;;14.71;52.67;100223.66;5013366;28;45947;-94
2022/04/25 02:05:37;;;;;;;;;20.75;18.50;;;;;14.66;52.95;100231.22;5014434;28;45479;-94
2022/04/25 02:08:03;;;;;;;;;20.50;17.75;;;;;14.68;53.08;100240.00;5013326;28;45490;-94
2022/04/25 02:10:28;;;;;;;;;18.50;18.50;;;;;14.61;53.53;100239.63;5013773;28;45434;-94
2022/04/25 02:12:54;;;;;;;;;19.25;18.25;;;;;14.59;53.38;100244.25;5012511;28;48649;-93
2022/04/25 02:15:20;;;;;;;;;18.25;17.00;;;;;14.55;53.42;100245.50;5013601;28;45529;-93
2022/04/25 02:17:45;;;;;;;;;17.00;17.00;;;;;14.52;53.60;100245.69;5013266;28;45456;-92
2022/04/25 02:20:14;;;;;;;;;23.50;16.25;;;;;14.53;53.52;100246.53;5013475;28;45418;-93
2022/04/25 02:22:40;;;;;;;;;15.25;15.25;;;;;14.46;53.60;100240.84;5014258;28;45987;-93
2022/04/25 02:25:07;;;;;;;;;21.00;16.25;;;;;14.44;53.64;100257.03;5012302;28;45543;-92
2022/04/25 02:27:32;;;;;;;;;17.25;15.25;;;;;14.44;53.79;100249.00;5011638;28;45483;-95
2022/04/25 02:29:58;;;;;;;;;15.75;15.75;;;;;14.42;54.06;100260.81;5016076;28;45333;-96
2022/04/25 02:32:24;;;;;;;;;19.25;18.50;;;;;14.45;54.15;100252.53;5015701;28;45367;-95
2022/04/25 02:34:53;;;;;;;;;14.50;12.75;;;;;14.35;53.83;100255.09;5025647;28;44759;-96
2022/04/25 02:37:19;;;;;;;;;19.00;18.50;;;;;14.40;54.07;100252.03;5021007;28;45512;-94
2022/04/25 02:39:44;;;;;;;;;15.00;13.50;;;;;14.34;54.26;100242.69;5023205;28;48690;-96
2022/04/25 02:42:09;;;;;;;;;23.00;19.25;;;;;14.32;54.57;100247.31;5028911;28;47249;-94
2022/04/25 02:44:35;;;;;;;;;18.50;16.75;;;;;14.30;54.65;100249.25;5025329;28;45257;-95
2022/04/25 02:47:00;;;;;;;;;19.00;16.00;;;;;14.22;54.98;100251.69;5021295;28;45340;-96
2022/04/25 02:49:25;;;;;;;;;18.25;17.25;;;;;14.21;54.84;100244.63;5021900;28;45473;-95
2022/04/25 02:51:51;;;;;;;;;20.50;19.50;;;;;14.14;55.22;100246.94;5033669;28;54047;-95
2022/04/25 02:54:17;;;;;;;;;20.75;20.25;;;;;14.14;55.25;100256.78;5027710;28;45600;-94
2022/04/25 02:56:42;;;;;;;;;20.75;17.00;;;;;14.07;55.40;100257.28;5018494;28;45301;-94
2022/04/25 02:59:08;;;;;;;;;18.25;18.25;;;;;14.11;55.20;100246.31;5018350;28;45357;-94
2022/04/25 03:01:33;;;;;;;;;17.00;14.25;;;;;14.13;55.36;100250.59;5017671;28;45411;-94
2022/04/25 03:03:59;;;;;;;;;20.50;20.50;;;;;14.11;55.29;100247.16;5018829;28;45443;-95
2022/04/25 03:06:25;;;;;;;;;22.25;18.75;;;;;14.12;55.51;100251.56;5018679;28;45337;-96
2022/04/25 03:08:51;;;;;;;;;14.75;13.50;;;;;14.06;55.64;100252.03;5019622;28;45280;-95
2022/04/25 03:11:16;;;;;;;;;21.00;19.25;;;;;13.98;56.03;100246.44;5018869;28;45484;-96
2022/04/25 03:13:42;;;;;;;;;22.00;20.75;;;;;14.00;56.46;100253.38;5019523;28;45434;-96
2022/04/25 03:16:08;;;;;;;;;19.00;17.50;;;;;13.96;56.11;100253.75;5018317;28;45562;-95
2022/04/25 03:18:34;;;;;;;;;21.25;19.25;;;;;13.93;56.11;100240.59;5019155;28;45389;-94
2022/04/25 03:21:00;;;;;;;;;21.75;19.00;;;;;13.97;56.74;100258.09;5019581;28;45558;-95
2022/04/25 03:23:26;;;;;;;;;22.25;19.25;;;;;13.95;56.68;100258.25;5019994;28;45356;-96
2022/04/25 03:25:52;;;;;;;;;21.25;19.50;;;;;13.91;56.71;100246.06;5019548;28;45441;-96
2022/04/25 03:28:18;;;;;;;;;20.50;19.00;;;;;13.94;56.91;100264.56;5018420;28;45365;-96
2022/04/25 03:30:44;;;;;;;;;23.25;20.25;;;;;13.96;56.74;100257.25;5018404;28;46095;-96
2022/04/25 03:33:11;;;;;;;;;20.25;19.25;;;;;13.91;57.20;100256.78;5017649;28;45456;-90
2022/04/25 03:35:40;;;;;;;;;19.00;18.00;;;;;13.92;56.91;100260.28;5016676;28;45535;-90
2022/04/25 03:38:10;;;;;;;;;23.00;19.50;;;;;13.91;56.94;100262.13;5016900;28;45433;-90
2022/04/25 03:40:36;;;;;;;;;19.50;17.75;;;;;13.83;57.26;100269.91;5016111;28;46224;-89
2022/04/25 03:43:04;;;;;;;;;19.00;18.25;;;;;13.78;57.59;100267.59;5016658;28;45387;-89
2022/04/25 03:45:29;;;;;;;;;23.00;21.25;;;;;13.76;57.30;100255.31;5032088;28;45958;-90
2022/04/25 03:47:55;;;;;;;;;23.00;19.00;;;;;13.75;57.69;100258.94;5017293;28;45400;-89
2022/04/25 03:50:20;;;;;;;;;19.50;19.00;;;;;13.79;57.59;100271.94;5015225;28;48182;-90
2022/04/25 03:52:46;;;;;;;;;21.25;19.75;;;;;13.75;57.68;100270.47;5016516;28;45295;-90
2022/04/25 03:58:01;;;;;;;;;26.50;22.75;;;;;13.75;57.62;100275.81;5014073;28;45429;-90
2022/04/25 04:00:27;;;;;;;;;24.50;20.75;;;;;13.72;58.04;100278.75;5031205;28;47155;-89
2022/04/25 04:02:53;;;;;;;;;27.00;24.75;;;;;13.70;57.92;100282.50;5014792;28;45427;-90
2022/04/25 04:05:20;;;;;;;;;24.25;22.25;;;;;13.69;58.38;100284.34;5015823;28;45418;-90
2022/04/25 04:07:46;;;;;;;;;23.50;22.00;;;;;13.68;57.94;100279.94;5015569;28;45485;-89
2022/04/25 04:10:11;;;;;;;;;23.00;22.25;;;;;13.70;58.35;100291.38;5016029;28;45972;-89
2022/04/25 04:12:38;;;;;;;;;26.00;21.50;;;;;13.67;58.16;100272.91;5014744;28;45377;-91
2022/04/25 04:15:05;;;;;;;;;22.50;21.00;;;;;13.67;58.22;100296.13;5012484;28;45487;-88
2022/04/25 04:17:31;;;;;;;;;22.00;20.50;;;;;13.61;58.36;100284.94;5014741;28;45421;-88
2022/04/25 04:19:57;;;;;;;;;29.75;22.25;;;;;13.63;58.49;100293.66;5003896;28;46154;-88
2022/04/25 04:22:26;;;;;;;;;25.25;22.00;;;;;13.61;58.53;100290.28;5010416;28;47740;-88
2022/04/25 04:24:57;;;;;;;;;22.50;21.75;;;;;13.57;58.79;100298.66;5007086;28;45353;-88
2022/04/25 04:27:23;;;;;;;;;25.00;23.25;;;;;13.50;59.01;100300.94;5006604;28;45621;-87
2022/04/25 04:29:48;;;;;;;;;24.75;22.25;;;;;13.51;58.99;100304.44;5015742;28;45476;-90
2022/04/25 04:32:14;;;;;;;;;31.75;25.50;;;;;13.56;58.66;100304.94;5014227;28;45410;-88
2022/04/25 04:34:39;;;;;;;;;25.75;25.75;;;;;13.50;58.96;100300.06;5013614;28;45747;-88
2022/04/25 04:37:06;;;;;;;;;21.50;20.25;;;;;13.50;59.12;100306.28;5015686;28;45251;-89
2022/04/25 04:39:32;;;;;;;;;22.75;22.00;;;;;13.46;59.32;100314.63;5014493;28;46057;-89
2022/04/25 04:41:57;;;;;;;;;25.50;21.75;;;;;13.39;59.33;100299.03;5013612;28;45454;-89
2022/04/25 04:44:23;;;;;;;;;22.75;21.00;;;;;13.47;59.51;100309.19;5012232;28;45527;-88
2022/04/25 04:46:48;;;;;;;;;25.75;22.75;;;;;13.35;59.36;100299.41;5001357;28;45297;-89
2022/04/25 04:49:14;;;;;;;;;18.50;14.50;;;;;13.40;59.66;100321.31;5014710;28;45620;-88
2022/04/25 04:51:40;;;;;;;;;27.50;23.75;;;;;13.35;59.68;100316.31;5030752;28;45538;-87
2022/04/25 04:54:05;;;;;;;;;28.50;24.25;;;;;13.36;59.77;100320.66;5012839;28;45400;-88
2022/04/25 04:56:32;;;;;;;;;29.50;25.50;;;;;13.39;59.68;100328.44;5013215;28;45282;-88
2022/04/25 04:58:58;;;;;;;;;21.00;20.00;;;;;13.42;59.92;100328.25;5014944;28;46454;-87
2022/04/25 05:01:24;;;;;;;;;25.75;24.00;;;;;13.35;60.03;100343.03;5014641;28;45195;-88
2022/04/25 05:03:50;;;;;;;;;25.25;23.00;;;;;13.32;59.94;100350.41;5013113;28;45400;-89
2022/04/25 05:06:16;;;;;;;;;24.25;23.00;;;;;13.29;60.24;100354.16;5007732;28;45467;-89
2022/04/25 05:08:41;;;;;;;;;32.00;29.00;;;;;13.15;60.49;100349.81;5000650;28;48203;-89
2022/04/25 05:11:09;;;;;;;;;29.75;25.50;;;;;13.24;60.36;100363.47;5015098;28;45443;-91
2022/04/25 05:13:38;;;;;;;;;31.50;29.00;;;;;13.14;60.43;100358.81;5014599;28;45575;-88
2022/04/25 05:16:04;;;;;;;;;35.00;28.75;;;;;13.07;61.14;100352.19;5013320;28;45522;-88
2022/04/25 05:18:32;;;;;;;;;30.25;27.25;;;;;13.11;61.13;100363.53;5014976;28;47572;-90
2022/04/25 05:20:58;;;;;;;;;29.75;26.75;;;;;13.05;60.95;100359.47;5015276;28;45510;-88
2022/04/25 05:23:23;;;;;;;;;31.00;28.25;;;;;13.04;61.04;100363.13;5015392;28;45394;-90
2022/04/25 05:25:49;;;;;;;;;30.25;26.00;;;;;13.13;60.98;100374.94;5015345;28;45404;-90
2022/04/25 05:28:14;;;;;;;;;33.00;30.50;;;;;13.12;61.14;100375.91;5012996;28;59287;-89
2022/04/25 05:30:39;;;;;;;;;30.00;30.00;;;;;13.15;60.78;100381.03;5014817;28;45504;-89
2022/04/25 05:33:05;;;;;;;;;32.75;29.50;;;;;13.14;60.84;100382.84;5015164;28;45427;-90
2022/04/25 05:35:34;;;;;;;;;33.75;31.25;;;;;13.12;60.83;100379.44;5015324;28;45298;-89
2022/04/25 05:38:03;;;;;;;;;31.50;28.75;;;;;13.18;60.81;100388.81;5015379;28;45976;-90
2022/04/25 05:40:29;;;;;;;;;29.75;28.50;;;;;13.15;60.83;100384.53;5014622;28;45447;-89
2022/04/25 05:42:56;;;;;;;;;36.25;33.00;;;;;13.14;60.98;100382.84;5015145;28;45506;-89
2022/04/25 05:45:24;;;;;;;;;23.75;23.50;;;;;13.15;60.72;100391.72;5029808;28;45562;-89
2022/04/25 05:47:51;;;;;;;;;35.50;32.25;;;;;13.12;61.20;100387.44;5014140;28;47422;-88
2022/04/25 05:53:02;;;;;;;;;39.00;34.00;;;;;13.11;60.71;100392.94;5016929;28;45411;-89
2022/04/25 05:55:28;;;;;;;;;29.00;27.75;;;;;13.09;60.71;100401.03;5018019;28;45275;-89
2022/04/25 05:57:54;;;;;;;;;38.25;33.00;;;;;13.05;60.94;100404.88;5015861;28;47793;-89
2022/04/25 06:00:20;;;;;;;;;33.75;32.00;;;;;13.01;61.08;100416.75;5014595;28;45479;-89
2022/04/25 06:02:46;;;;;;;;;39.00;33.75;;;;;13.00;61.11;100415.06;5013368;28;45413;-90
2022/04/25 06:05:15;;;;;;;;;34.50;32.00;;;;;13.05;60.88;100412.06;5013591;28;45524;-92
2022/04/25 06:07:45;;;;;;;;;40.25;34.25;;;;;12.99;60.92;100410.69;5015229;28;45352;-89
2022/04/25 06:10:12;;;;;;;;;41.50;35.75;;;;;13.00;61.05;100410.56;5012689;28;45728;-88
2022/04/25 06:12:42;;;;;;;;;46.50;37.00;;;;;12.97;60.87;100437.50;5014648;28;45514;-89
2022/04/25 06:15:09;;;;;;;;;45.50;37.50;;;;;13.00;60.76;100436.44;5016625;28;45470;-88
2022/04/25 06:17:35;;;;;;;;;47.00;39.75;;;;;12.91;60.92;100429.91;5018047;28;45399;-88
2022/04/25 06:20:01;;;;;;;;;34.50;32.75;;;;;12.88;60.81;100427.47;5016971;28;45357;-88
2022/04/25 06:22:26;;;;;;;;;43.50;36.25;;;;;12.93;61.16;100441.34;5017935;28;45372;-88
2022/04/25 06:24:51;;;;;;;;;43.00;36.50;;;;;12.90;61.41;100454.09;5017448;28;45235;-88
2022/04/25 06:27:16;;;;;;;;;42.75;35.75;;;;;12.95;60.94;100438.59;5015995;28;54178;-89
2022/04/25 06:29:44;;;;;;;;;41.50;36.50;;;;;12.98;60.87;100457.06;5017199;28;56291;-88
2022/04/25 06:32:10;;;;;;;;;42.50;37.50;;;;;13.02;60.39;100455.03;5017959;28;45360;-88
2022/04/25 06:34:36;;;;;;;;;44.50;37.00;;;;;12.96;60.70;100441.16;5016896;28;45583;-88
2022/04/25 06:37:02;;;;;;;;;44.25;36.25;;;;;12.95;60.77;100439.44;5016357;28;47074;-88
2022/04/25 06:39:28;;;;;;;;;46.75;38.25;;;;;12.94;60.40;100459.13;5017288;28;45515;-88
2022/04/25 06:41:53;;;;;;;;;47.50;39.00;;;;;12.89;60.78;100433.66;5016305;28;45372;-88
2022/04/25 06:44:19;;;;;;;;;46.25;38.25;;;;;12.94;60.61;100431.50;5017890;28;45328;-90
2022/04/25 06:46:44;;;;;;;;;45.50;39.25;;;;;12.99;60.57;100456.97;5017139;28;45494;-88
2022/04/25 06:49:23;;;;;;;;;42.75;36.50;;;;;12.92;60.74;100431.63;5017847;28;47833;-89
2022/04/25 06:51:53;;;;;;;;;45.00;37.25;;;;;13.02;60.54;100449.69;5017866;28;47504;-89
2022/04/25 06:54:20;;;;;;;;;42.50;36.00;;;;;13.08;60.60;100449.25;5035053;28;45623;-89
2022/04/25 06:56:46;;;;;;;;;50.75;40.25;;;;;13.09;60.38;100449.16;5011637;28;46814;-90
2022/04/25 06:59:12;;;;;;;;;49.50;38.25;;;;;13.06;60.34;100449.38;5019603;28;45669;-89
2022/04/25 07:01:39;;;;;;;;;47.25;37.50;;;;;13.02;60.24;100439.00;5020296;28;45328;-90
2022/04/25 07:04:06;;;;;;;;;47.00;37.25;;;;;13.09;60.48;100459.00;5015867;28;45392;-90
2022/04/25 07:06:31;;;;;;;;;47.25;39.25;;;;;13.16;60.02;100454.91;5015552;28;48316;-90
2022/04/25 07:08:57;;;;;;;;;46.75;37.50;;;;;13.25;59.62;100464.06;5015471;28;45498;-90
2022/04/25 07:11:22;;;;;;;;;48.25;36.50;;;;;13.17;59.83;100452.09;5017081;28;45364;-90
2022/04/25 07:13:47;;;;;;;;;45.50;37.25;;;;;13.25;59.64;100451.56;5033612;28;45428;-90
2022/04/25 07:16:13;;;;;;;;;46.50;38.50;;;;;13.32;59.17;100458.19;5016815;28;46139;-89
2022/04/25 07:18:38;;;;;;;;;45.00;37.25;;;;;13.31;59.29;100455.66;5016116;28;45470;-90
2022/04/25 07:29:22;;;;;;;;;41.25;36.00;;;;;13.33;58.96;100477.78;5016938;28;45433;-88
2022/04/25 07:31:47;;;;;;;;;47.25;37.75;;;;;13.24;59.01;100476.59;5017460;28;45301;-91
2022/04/25 07:34:13;;;;;;;;;45.75;38.75;;;;;13.20;59.32;100481.31;5015498;28;45631;-88
2022/04/25 07:36:38;;;;;;;;;43.75;38.00;;;;;13.27;59.42;100483.53;5016024;28;46250;-90
2022/04/25 07:39:04;;;;;;;;;39.75;35.50;;;;;13.26;59.06;100484.50;5015200;28;45708;-89
2022/04/25 07:41:29;;;;;;;;;45.25;38.00;;;;;13.20;59.17;100467.06;5017248;28;45325;-90
2022/04/25 07:43:56;;;;;;;;;43.75;37.50;;;;;13.30;59.05;100484.22;5015998;28;45338;-91
2022/04/25 07:46:25;;;;;;;;;44.75;35.00;;;;;13.28;58.97;100474.59;5015126;28;47219;-90
2022/04/25 07:48:50;;;;;;;;;46.50;39.00;;;;;13.37;59.49;100492.63;5015186;28;45483;-90
2022/04/25 07:51:16;;;;;;;;;46.75;39.00;;;;;13.35;58.91;100470.53;5016495;28;45601;-90
2022/04/25 07:53:41;;;;;;;;;46.75;38.00;;;;;13.45;59.24;100490.28;5016451;28;50142;-90
2022/04/25 07:56:07;;;;;;;;;48.00;40.00;;;;;13.46;59.03;100499.16;5018445;28;45860;-90
2022/04/25 07:58:34;;;;;;;;;43.50;37.75;;;;;13.45;59.10;100498.28;5019938;28;45418;-90
2022/04/25 08:00:59;;;;;;;;;44.75;37.25;;;;;13.51;58.74;100505.00;5019188;28;45565;-90
2022/04/25 08:03:25;;;;;;;;;47.50;37.75;;;;;13.47;59.04;100504.41;5017108;28;45523;-91
2022/04/25 08:05:50;;;;;;;;;45.75;37.00;;;;;13.54;59.05;100510.13;5020961;28;46646;-90
2022/04/25 08:08:16;;;;;;;;;47.25;36.75;;;;;13.53;58.67;100509.28;5015803;28;45923;-89
2022/04/25 08:10:41;;;;;;;;;47.25;40.00;;;;;13.56;58.61;100511.72;5017187;28;45421;-89
2022/04/25 08:18:34;;;;;;;;;49.25;39.75;;;;;13.37;58.55;100528.25;5015876;28;45429;-89
2022/04/25 08:21:00;;;;;;;;;48.50;40.25;;;;;13.22;58.40;100514.09;5014273;28;45411;-89
2022/04/25 08:23:26;;;;;;;;;46.25;39.25;;;;;13.23;59.01;100528.34;5014504;28;45418;-89
2022/04/25 08:25:52;;;;;;;;;49.00;40.00;;;;;13.26;59.56;100530.81;5016258;28;45479;-89
2022/04/25 08:28:19;;;;;;;;;48.50;41.25;;;;;13.36;58.69;100533.72;5015456;28;45447;-89
2022/04/25 08:30:45;;;;;;;;;52.50;41.25;;;;;13.36;59.13;100539.91;5015594;28;45483;-91
2022/04/25 08:33:11;;;;;;;;;50.25;41.25;;;;;13.40;59.36;100541.41;5016026;28;45495;-91
2022/04/25 08:35:36;;;;;;;;;46.25;37.75;;;;;13.44;58.65;100525.97;5016103;28;45938;-91
2022/04/25 08:38:02;;;;;;;;;47.50;39.25;;;;;13.43;58.66;100537.66;5017312;28;45416;-92
2022/04/25 08:40:27;;;;;;;;;50.75;41.75;;;;;13.45;58.92;100541.09;5017164;28;45479;-91
2022/04/25 08:42:54;;;;;;;;;45.00;37.00;;;;;13.53;58.63;100537.84;5016741;28;45595;-90
2022/04/25 08:45:20;;;;;;;;;42.50;36.50;;;;;13.61;58.92;100544.38;5015753;28;45449;-90
2022/04/25 08:47:52;;;;;;;;;47.50;40.00;;;;;13.69;58.90;100543.81;5031122;28;45476;-91
2022/04/25 08:50:18;;;;;;;;;50.25;41.00;;;;;13.76;58.98;100544.22;5014560;28;45537;-90
2022/04/25 08:52:45;;;;;;;;;49.25;41.25;;;;;13.64;57.63;100543.28;5015615;28;45482;-92
2022/04/25 08:55:12;;;;;;;;;49.00;39.75;;;;;13.54;58.19;100552.91;5015105;28;45976;-92
2022/04/25 08:57:38;;;;;;;;;47.25;39.00;;;;;13.57;58.20;100556.25;5014475;28;45464;-92
2022/04/25 09:00:06;;;;;;;;;48.25;39.00;;;;;13.52;58.31;100549.53;5017247;28;45349;-92
2022/04/25 09:02:33;;;;;;;;;49.00;40.00;;;;;13.61;58.51;100559.53;5016665;28;45436;-91
2022/04/25 09:04:58;;;;;;;;;47.00;39.25;;;;;13.75;58.73;100558.56;5017946;28;45519;-91
2022/04/25 09:07:23;;;;;;;;;48.00;40.25;;;;;13.71;58.51;100554.38;5016270;28;45395;-91
2022/04/25 09:09:49;;;;;;;;;39.25;36.00;;;;;13.84;58.44;100576.63;5014006;28;45499;-90
2022/04/25 09:12:17;;;;;;;;;49.00;40.50;;;;;14.04;57.66;100556.41;5028098;28;45411;-91
2022/04/25 09:14:44;;;;;;;;;43.75;37.50;;;;;14.11;57.39;100549.66;5021299;28;47481;-90
2022/04/25 09:17:10;;;;;;;;;45.50;37.00;;;;;14.18;56.46;100550.06;5013807;28;45455;-90
2022/04/25 09:19:37;;;;;;;;;37.75;33.75;;;;;14.09;56.74;100551.56;5011495;28;45420;-91
2022/04/25 09:22:04;;;;;;;;;39.25;34.25;;;;;14.21;57.23;100557.84;5014844;28;45356;-90
2022/04/25 09:24:32;;;;;;;;;40.50;34.50;;;;;14.32;56.98;100551.72;5012585;28;46114;-91
2022/04/25 09:27:07;;;;;;;;;40.75;36.00;;;;;14.47;56.42;100551.41;5011956;28;45592;-91
2022/04/25 09:29:34;;;;;;;;;41.75;36.00;;;;;14.59;54.66;100556.84;5007156;28;45608;-94
2022/04/25 09:32:00;;;;;;;;;47.00;38.25;;;;;14.40;55.20;100557.34;5013969;28;45451;-90
2022/04/25 09:37:12;;;;;;;;;41.25;35.50;;;;;14.45;54.66;100549.81;5014002;28;45445;-90
2022/04/25 09:39:37;;;;;;;;;42.50;36.00;;;;;14.37;55.41;100544.19;5013311;28;45520;-90
2022/04/25 09:42:04;;;;;;;;;43.00;35.75;;;;;14.42;55.64;100555.41;5028534;28;45562;-91
2022/04/25 09:44:53;;;;;;;;;33.50;31.25;;;;;14.69;55.66;100566.72;5011540;28;46250;-91
2022/04/25 09:47:29;;;;;;;;;45.50;36.00;;;;;14.87;55.02;100560.94;5010767;28;45801;-91
2022/04/25 09:49:59;;;;;;;;;41.25;34.50;;;;;15.06;54.12;100566.59;5013373;28;45471;-91
2022/04/25 09:52:24;;;;;;;;;42.50;37.00;;;;;15.18;53.28;100559.41;5012118;28;45523;-92
2022/04/25 09:54:50;;;;;;;;;41.00;35.75;;;;;15.33;52.86;100571.59;5010763;28;47902;-90
2022/04/25 09:57:31;;;;;;;;;39.75;34.25;;;;;15.33;52.64;100558.19;5014050;28;45316;-89
2022/04/25 09:59:57;;;;;;;;;41.00;33.50;;;;;15.51;52.33;100573.78;5012051;28;45577;-89
2022/04/25 10:02:23;;;;;;;;;33.00;31.50;;;;;15.61;51.50;100572.13;5010543;28;45613;-89
2022/04/25 10:04:48;;;;;;;;;33.00;31.50;;;;;15.48;51.77;100557.94;5015346;28;45933;-92
2022/04/25 10:07:14;;;;;;;;;39.25;34.00;;;;;15.75;51.14;100576.38;5016421;28;45331;-92
2022/04/25 10:09:40;;;;;;;;;31.50;30.50;;;;;15.85;50.41;100572.00;5016042;28;45346;-93
2022/04/25 10:12:06;;;;;;;;;36.50;32.75;;;;;15.88;50.45;100569.06;5018316;28;45479;-94
2022/04/25 10:14:31;;;;;;;;;33.75;30.50;;;;;15.98;50.81;100578.06;5014814;28;47311;-92
2022/04/25 10:16:59;;;;;;;;;35.50;31.50;;;;;16.24;50.75;100568.84;5015124;28;45270;-94
2022/04/25 10:19:26;;;;;;;;;35.00;31.75;;;;;16.39;49.63;100576.47;5013663;28;45354;-92
2022/04/25 10:21:52;;;;;;;;;38.50;32.75;;;;;16.47;48.90;100583.06;5014677;28;45404;-92
2022/04/25 10:24:18;;;;;;;;;32.00;29.75;;;;;16.34;49.24;100577.84;5014163;28;45930;-92
2022/04/25 10:26:46;;;;;;;;;38.75;32.50;;;;;16.38;49.20;100571.25;5014181;28;45336;-90
2022/04/25 10:29:16;;;;;;;;;35.50;30.00;;;;;16.41;49.17;100573.69;5014443;28;45355;-91
2022/04/25 10:31:43;;;;;;;;;37.25;31.75;;;;;16.37;49.07;100575.75;5007837;28;45874;-92
2022/04/25 10:34:09;;;;;;;;;36.25;32.00;;;;;16.42;48.60;100575.38;5014017;28;45569;-92
2022/04/25 10:36:38;;;;;;;;;33.50;30.50;;;;;16.43;48.26;100582.47;5012479;28;45430;-90
2022/04/25 10:39:17;;;;;;;;;27.50;25.50;;;;;16.66;48.13;100582.38;5009356;28;45503;-83
2022/04/25 10:44:29;;;;;;;;;28.50;28.50;;;;;17.19;47.67;100583.19;5011451;28;45897;-83
2022/04/25 10:47:04;;;;;;;;;33.75;31.25;;;;;17.38;47.56;100576.19;5012058;28;45424;-83
2022/04/25 10:49:42;;;;;;;;;40.00;35.50;;;;;17.57;47.18;100580.81;5011761;28;45556;-83
2022/04/25 10:52:52;;;;;;;;;34.25;29.50;;;;;17.39;45.69;100580.59;5010668;28;45298;-83
2022/04/25 10:55:34;;;;;;;;;28.00;26.50;;;;;17.50;46.26;100580.50;5023103;28;46057;-84
2022/04/25 10:58:02;;;;;;;;;27.25;26.25;;;;;17.72;45.55;100586.69;5001503;28;45378;-84
2022/04/25 11:00:37;;;;;;;;;31.25;28.25;;;;;17.82;44.94;100576.81;5013497;28;45899;-83
2022/04/25 11:03:27;;;;;;;;;28.00;26.75;;;;;17.98;45.13;100582.56;5004647;28;45510;-83
2022/04/25 11:05:55;;;;;;;;;22.25;22.25;;;;;17.99;45.05;100569.94;4989048;28;46004;-83
2022/04/25 11:08:21;;;;;;;;;21.00;19.00;;;;;18.39;42.66;100583.31;5022465;28;45899;-83
2022/04/25 11:10:56;;;;;;;;;22.00;21.00;;;;;18.47;42.28;100564.63;5003159;28;45859;-83
2022/04/25 11:13:28;;;;;;;;;22.25;20.50;;;;;18.56;41.85;100580.94;5004157;28;45740;-83
2022/04/25 11:15:56;;;;;;;;;26.25;23.75;;;;;18.61;41.83;100571.41;5003969;28;47406;-83
2022/04/25 11:18:34;;;;;;;;;25.25;24.00;;;;;18.61;42.40;100576.81;5006790;28;45550;-83
2022/04/25 11:21:07;;;;;;;;;19.00;19.00;;;;;18.73;42.54;100589.13;5004964;28;45676;-84
2022/04/25 11:23:34;;;;;;;;;25.50;22.75;;;;;18.71;42.23;100583.06;5008394;28;45565;-82
2022/04/25 11:26:01;;;;;;;;;22.50;22.00;;;;;18.84;42.32;100585.50;5000345;28;45826;-83
2022/04/25 11:28:27;;;;;;;;;23.00;22.00;;;;;18.97;41.09;100577.09;5002504;28;45536;-83
2022/04/25 11:31:15;;;;;;;;;21.75;20.25;;;;;19.00;40.67;100579.53;5003433;28;45895;-82
2022/04/25 11:33:45;;;;;;;;;21.75;20.50;;;;;19.03;39.47;100572.97;5008127;28;48008;-90
2022/04/25 11:36:12;;;;;;;;;21.50;20.00;;;;;18.93;39.77;100568.44;5012925;28;48137;-88
2022/04/25 11:41:23;;;;;;;;;22.00;20.50;;;;;19.21;39.25;100578.47;5003406;28;45989;-91